createdAt,value
2022-09-23T00:00:12.370Z,4.40
2022-09-23T00:02:38.762Z,3.97
2022-09-23T00:05:05.336Z,7.55
2022-09-23T00:07:31.655Z,5.72
2022-09-23T00:09:59.035Z,6.28
2022-09-23T00:12:25.332Z,4.90
2022-09-23T00:14:51.681Z,4.70
2022-09-23T00:17:17.974Z,4.82
2022-09-23T00:19:44.325Z,9.38
2022-09-23T00:22:10.793Z,5.72
2022-09-23T00:24:37.410Z,6.05
2022-09-23T00:27:03.801Z,4.82
2022-09-23T00:29:31.387Z,4.15
2022-09-23T00:31:58.135Z,4.50
2022-09-23T00:34:24.656Z,8.23
2022-09-23T00:36:50.971Z,6.90
2022-09-23T00:39:17.357Z,4.25
2022-09-23T00:41:43.698Z,4.20
2022-09-23T00:44:28.777Z,5.53
2022-09-23T00:46:55.058Z,8.13
2022-09-23T00:49:25.354Z,6.22
2022-09-23T00:52:06.608Z,5.17
2022-09-23T00:56:59.824Z,6.35
2022-09-23T00:59:28.732Z,6.03
2022-09-23T01:01:56.581Z,5.22
2022-09-23T01:04:24.606Z,6.25
2022-09-23T01:06:50.883Z,7.80
2022-09-23T01:09:17.550Z,4.90
2022-09-23T01:11:43.822Z,5.30
2022-09-23T01:14:29.166Z,5.13
2022-09-23T01:17:00.779Z,7.22
2022-09-23T01:19:29.969Z,7.10
2022-09-23T01:22:01.590Z,5.00
2022-09-23T01:24:37.887Z,5.28
2022-09-23T01:27:14.823Z,5.82
2022-09-23T01:29:58.949Z,4.90
2022-09-23T01:32:42.246Z,4.95
2022-09-23T01:35:30.257Z,5.63
2022-09-23T01:38:08.519Z,7.00
2022-09-23T01:40:50.202Z,5.20
2022-09-23T01:43:23.219Z,5.40
2022-09-23T01:45:54.388Z,6.28
2022-09-23T01:50:58.343Z,4.88
2022-09-23T01:53:43.472Z,5.63
2022-09-23T01:56:16.964Z,6.43
2022-09-23T01:59:02.200Z,7.05
2022-09-23T02:01:55.351Z,8.45
2022-09-23T02:04:28.143Z,10.70
2022-09-23T02:06:56.077Z,5.97
2022-09-23T02:09:24.897Z,4.93
2022-09-23T02:11:53.560Z,5.00
2022-09-23T02:14:42.470Z,5.05
2022-09-23T02:17:15.751Z,9.43
2022-09-23T02:19:48.025Z,5.13
2022-09-23T02:22:19.440Z,6.57
2022-09-23T02:24:45.926Z,6.22
2022-09-23T02:27:15.535Z,5.07
2022-09-23T02:29:44.800Z,6.10
2022-09-23T02:32:14.982Z,6.70
2022-09-23T02:35:01.770Z,5.40
2022-09-23T02:37:28.642Z,5.03
2022-09-23T02:39:57.782Z,7.07
2022-09-23T02:42:27.222Z,9.02
2022-09-23T02:44:53.567Z,5.90
2022-09-23T02:47:24.048Z,5.93
2022-09-23T02:49:50.663Z,5.97
2022-09-23T02:52:18.049Z,6.18
2022-09-23T02:54:44.475Z,5.05
2022-09-23T02:57:10.767Z,5.97
2022-09-23T02:59:37.159Z,5.25
2022-09-23T03:02:17.120Z,7.40
2022-09-23T03:05:06.862Z,5.97
2022-09-23T03:07:45.664Z,6.10
2022-09-23T03:10:30.815Z,12.43
2022-09-23T03:13:16.513Z,11.18
2022-09-23T03:15:48.434Z,6.90
2022-09-23T03:18:20.317Z,7.80
2022-09-23T03:20:50.065Z,8.60
2022-09-23T03:23:19.955Z,9.93
2022-09-23T03:25:48.387Z,8.25
2022-09-23T03:28:15.619Z,8.18
2022-09-23T03:30:43.461Z,6.78
2022-09-23T03:33:12.392Z,9.35
2022-09-23T03:36:02.267Z,7.57
2022-09-23T03:38:32.883Z,8.48
2022-09-23T03:41:01.390Z,7.70
2022-09-23T03:43:27.883Z,11.95
2022-09-23T03:45:57.284Z,8.20
2022-09-23T03:48:24.288Z,10.25
2022-09-23T03:50:50.647Z,9.18
2022-09-23T03:53:18.872Z,10.63
2022-09-23T03:55:46.512Z,13.43
2022-09-23T03:58:12.839Z,11.65
2022-09-23T04:00:39.551Z,9.52
2022-09-23T04:03:10.916Z,11.18
2022-09-23T04:05:38.048Z,13.00
2022-09-23T04:08:04.351Z,14.10
2022-09-23T04:10:30.899Z,12.65
2022-09-23T04:12:57.321Z,15.65
2022-09-23T04:15:23.627Z,14.05
2022-09-23T04:17:49.904Z,15.13
2022-09-23T04:20:19.162Z,12.90
2022-09-23T04:22:45.496Z,12.20
2022-09-23T04:25:11.881Z,12.40
2022-09-23T04:27:38.740Z,12.10
2022-09-23T04:30:06.012Z,12.50
2022-09-23T04:32:32.385Z,12.40
2022-09-23T04:34:58.991Z,14.13
2022-09-23T04:37:25.288Z,13.35
2022-09-23T04:39:51.624Z,14.75
2022-09-23T04:42:17.886Z,15.18
2022-09-23T04:44:44.312Z,13.02
2022-09-23T04:47:10.594Z,13.73
2022-09-23T04:49:36.921Z,13.98
2022-09-23T04:52:05.289Z,13.55
2022-09-23T04:54:31.987Z,13.15
2022-09-23T04:56:58.445Z,14.15
2022-09-23T04:59:24.942Z,16.42
2022-09-23T05:01:51.923Z,17.00
2022-09-23T05:04:18.347Z,14.95
2022-09-23T05:06:45.003Z,14.52
2022-09-23T05:09:14.405Z,15.05
2022-09-23T05:11:40.715Z,13.57
2022-09-23T05:14:07.233Z,12.60
2022-09-23T05:16:33.553Z,15.25
2022-09-23T05:19:00.174Z,11.70
2022-09-23T05:21:29.082Z,15.65
2022-09-23T05:23:58.751Z,13.50
2022-09-23T05:26:25.937Z,13.35
2022-09-23T05:28:52.882Z,13.70
2022-09-23T05:31:20.932Z,12.20
2022-09-23T05:33:48.705Z,15.35
2022-09-23T05:36:17.743Z,15.52
2022-09-23T05:38:44.520Z,12.55
2022-09-23T05:41:11.767Z,12.10
2022-09-23T05:43:38.246Z,16.52
2022-09-23T05:46:08.193Z,14.40
2022-09-23T05:48:35.428Z,14.37
2022-09-23T05:51:02.107Z,11.90
2022-09-23T05:53:29.499Z,12.13
2022-09-23T05:55:58.539Z,13.05
2022-09-23T05:58:25.323Z,12.82
2022-09-23T06:00:51.915Z,11.52
2022-09-23T06:03:19.616Z,12.20
2022-09-23T06:05:46.160Z,11.48
2022-09-23T06:08:12.821Z,13.63
2022-09-23T06:10:39.988Z,11.68
2022-09-23T06:13:06.512Z,12.88
2022-09-23T06:15:32.960Z,11.63
2022-09-23T06:17:59.658Z,11.98
2022-09-23T06:20:26.479Z,12.15
2022-09-23T06:22:55.532Z,12.05
2022-09-23T06:25:23.092Z,12.35
2022-09-23T06:27:54.312Z,12.90
2022-09-23T06:30:21.396Z,14.50
2022-09-23T06:32:49.757Z,15.82
2022-09-23T06:35:25.599Z,12.23
2022-09-23T06:37:53.908Z,11.20
2022-09-23T06:40:20.993Z,12.63
2022-09-23T06:42:51.616Z,11.35
2022-09-23T06:45:18.725Z,12.25
2022-09-23T06:47:47.025Z,12.10
2022-09-23T06:50:13.403Z,15.45
2022-09-23T06:52:39.774Z,13.02
2022-09-23T06:55:06.563Z,13.55
2022-09-23T06:57:33.149Z,11.85
2022-09-23T06:59:59.488Z,11.82
2022-09-23T07:02:26.472Z,14.02
2022-09-23T07:04:53.115Z,12.27
2022-09-23T07:07:19.414Z,15.80
2022-09-23T07:09:45.844Z,15.55
2022-09-23T07:12:12.339Z,11.60
2022-09-23T07:14:38.977Z,11.10
2022-09-23T07:17:05.347Z,12.32
2022-09-23T07:19:31.671Z,13.85
2022-09-23T07:21:58.027Z,14.25
2022-09-23T07:24:24.628Z,11.40
2022-09-23T07:26:50.909Z,13.48
2022-09-23T07:29:17.329Z,16.45
2022-09-23T07:31:43.698Z,10.55
2022-09-23T07:34:11.501Z,11.90
2022-09-23T07:36:40.944Z,14.07
2022-09-23T07:39:08.666Z,13.05
2022-09-23T07:41:35.162Z,16.27
2022-09-23T07:44:02.883Z,12.55
2022-09-23T07:46:30.471Z,12.90
2022-09-23T07:48:57.245Z,14.05
2022-09-23T07:51:31.879Z,10.50
2022-09-23T07:54:01.528Z,12.10
2022-09-23T07:56:28.799Z,11.45
2022-09-23T07:59:01.601Z,14.93
2022-09-23T08:01:29.506Z,11.02
2022-09-23T08:03:56.746Z,14.13
2022-09-23T08:06:23.686Z,10.63
2022-09-23T08:08:53.164Z,10.85
2022-09-23T08:11:19.902Z,10.93
2022-09-23T08:13:46.370Z,11.00
2022-09-23T08:16:12.704Z,13.57
2022-09-23T08:18:39.150Z,11.57
2022-09-23T08:21:05.554Z,12.38
2022-09-23T08:23:33.874Z,16.45
2022-09-23T08:26:01.879Z,10.23
2022-09-23T08:28:28.491Z,10.57
2022-09-23T08:30:55.215Z,11.40
2022-09-23T08:33:23.554Z,11.68
2022-09-23T08:35:50.995Z,9.88
2022-09-23T08:38:17.404Z,15.25
2022-09-23T08:40:47.116Z,10.40
2022-09-23T08:43:17.400Z,14.00
2022-09-23T08:45:44.438Z,10.15
2022-09-23T08:48:13.253Z,8.38
2022-09-23T08:50:52.024Z,7.70
2022-09-23T08:53:24.952Z,10.65
2022-09-23T08:55:53.633Z,8.05
2022-09-23T08:58:29.264Z,9.77
2022-09-23T09:01:07.959Z,8.27
2022-09-23T09:03:36.462Z,11.70
2022-09-23T09:06:02.973Z,10.20
2022-09-23T09:08:32.422Z,10.68
2022-09-23T09:10:59.608Z,8.43
2022-09-23T09:13:28.851Z,13.27
2022-09-23T09:16:15.991Z,13.32
2022-09-23T09:18:52.336Z,8.43
2022-09-23T09:21:19.231Z,11.52
2022-09-23T09:24:00.101Z,8.98
2022-09-23T09:26:29.364Z,11.75
2022-09-23T09:29:16.862Z,9.25
2022-09-23T09:31:49.538Z,11.48
2022-09-23T09:34:45.625Z,8.82
2022-09-23T09:37:33.557Z,10.65
2022-09-23T09:40:00.178Z,9.25
2022-09-23T09:42:30.599Z,10.48
2022-09-23T09:45:00.661Z,9.10
2022-09-23T09:47:32.835Z,8.00
2022-09-23T09:50:07.265Z,10.15
2022-09-23T09:52:33.830Z,9.15
2022-09-23T09:55:12.356Z,10.05
2022-09-23T09:57:41.944Z,13.27
2022-09-23T10:00:19.514Z,9.90
2022-09-23T10:02:46.589Z,7.72
2022-09-23T10:05:25.742Z,7.30
2022-09-23T10:07:52.398Z,9.85
2022-09-23T10:10:32.774Z,7.75
2022-09-23T10:13:13.335Z,7.93
2022-09-23T10:15:44.930Z,11.40
2022-09-23T10:18:21.808Z,10.85
2022-09-23T10:20:48.409Z,11.60
2022-09-23T10:23:16.385Z,9.52
2022-09-23T10:25:42.731Z,12.88
2022-09-23T10:28:30.720Z,14.05
2022-09-23T10:31:04.540Z,11.05
2022-09-23T10:33:31.209Z,14.35
2022-09-23T10:35:57.575Z,13.10
2022-09-23T10:38:23.927Z,10.38
2022-09-23T10:44:11.348Z,10.10
2022-09-23T10:46:47.410Z,8.75
2022-09-23T10:49:32.521Z,9.07
2022-09-23T10:52:04.601Z,7.75
2022-09-23T10:54:48.611Z,8.20
2022-09-23T10:57:33.640Z,6.57
2022-09-23T11:00:08.440Z,9.93
2022-09-23T11:02:44.974Z,10.60
2022-09-23T11:05:32.677Z,16.35
2022-09-23T11:08:14.642Z,9.63
2022-09-23T11:10:48.477Z,9.32
2022-09-23T11:13:20.717Z,10.25
2022-09-23T11:15:47.706Z,7.35
2022-09-23T11:18:17.127Z,16.65
2022-09-23T11:20:46.544Z,9.75
2022-09-23T11:23:26.523Z,9.23
2022-09-23T11:25:56.206Z,11.60
2022-09-23T11:28:41.868Z,13.68
2022-09-23T11:31:27.126Z,12.05
2022-09-23T11:34:04.435Z,13.85
2022-09-23T11:36:40.142Z,14.02
2022-09-23T11:39:32.699Z,10.30
2022-09-23T11:42:02.107Z,11.80
2022-09-23T11:44:48.363Z,10.75
2022-09-23T11:47:19.508Z,11.13
2022-09-23T11:50:02.734Z,16.17
2022-09-23T11:52:31.847Z,13.38
2022-09-23T11:55:14.940Z,9.25
2022-09-23T11:57:53.146Z,12.25
2022-09-23T12:00:21.446Z,9.40
2022-09-23T12:03:02.542Z,9.43
2022-09-23T12:05:35.278Z,9.40
2022-09-23T12:08:07.016Z,8.13
2022-09-23T12:10:40.710Z,10.52
2022-09-23T12:13:11.614Z,8.32
2022-09-23T12:15:45.489Z,12.15
2022-09-23T12:18:37.063Z,7.90
2022-09-23T12:21:03.398Z,9.65
2022-09-23T12:23:53.008Z,6.70
2022-09-23T12:26:21.307Z,6.78
2022-09-23T12:28:50.007Z,6.28
2022-09-23T12:31:18.473Z,7.18
2022-09-23T12:33:49.211Z,7.63
2022-09-23T12:38:52.472Z,10.40
2022-09-23T12:41:22.580Z,8.45
2022-09-23T12:43:55.262Z,8.27
2022-09-23T12:46:27.428Z,6.65
2022-09-23T12:49:03.069Z,9.82
2022-09-23T12:51:30.307Z,8.20
2022-09-23T12:53:59.619Z,5.75
2022-09-23T12:56:38.595Z,5.57
2022-09-23T12:59:23.497Z,9.80
2022-09-23T13:01:49.990Z,5.78
2022-09-23T13:04:46.961Z,5.35
2022-09-23T13:07:16.417Z,7.55
2022-09-23T13:09:45.397Z,5.95
2022-09-23T13:12:32.413Z,9.07
2022-09-23T13:15:03.362Z,5.45
2022-09-23T13:17:31.723Z,5.32
2022-09-23T13:19:59.836Z,5.72
2022-09-23T13:22:45.063Z,6.40
2022-09-23T13:25:37.898Z,3.83
2022-09-23T13:28:12.530Z,7.72
2022-09-23T13:30:47.516Z,5.30
2022-09-23T13:33:21.305Z,7.07
2022-09-23T13:35:51.339Z,8.07
2022-09-23T13:38:20.005Z,5.60
2022-09-23T13:40:47.024Z,7.22
2022-09-23T13:43:25.019Z,7.82
2022-09-23T13:45:51.698Z,6.65
2022-09-23T13:48:19.056Z,3.22
2022-09-23T13:50:49.512Z,9.75
2022-09-23T13:53:36.093Z,5.68
2022-09-23T13:56:04.212Z,5.97
2022-09-23T13:58:31.409Z,6.28
2022-09-23T14:00:58.405Z,7.82
2022-09-23T14:03:35.857Z,9.73
2022-09-23T14:06:09.507Z,10.32
2022-09-23T14:08:38.321Z,9.85
2022-09-23T14:11:06.218Z,11.05
2022-09-23T14:13:35.558Z,7.47
2022-09-23T14:16:02.545Z,9.60
2022-09-23T14:18:33.802Z,9.80
2022-09-23T14:21:00.303Z,12.35
2022-09-23T14:23:27.233Z,12.00
2022-09-23T14:25:54.327Z,11.85
2022-09-23T14:28:22.555Z,12.00
2022-09-23T14:30:50.691Z,11.20
2022-09-23T14:33:19.871Z,10.00
2022-09-23T14:35:48.086Z,8.60
2022-09-23T14:38:40.183Z,10.27
2022-09-23T14:41:17.215Z,10.05
2022-09-23T14:43:48.857Z,10.00
2022-09-23T14:46:19.578Z,11.13
2022-09-23T14:51:16.934Z,13.15
2022-09-23T14:53:45.686Z,11.65
2022-09-23T14:56:21.979Z,9.20
2022-09-23T14:58:54.301Z,11.23
2022-09-23T15:01:32.914Z,13.32
2022-09-23T15:04:00.651Z,11.60
2022-09-23T15:06:27.247Z,9.40
2022-09-23T15:08:55.095Z,13.80
2022-09-23T15:11:21.788Z,9.07
2022-09-23T15:13:49.881Z,7.18
2022-09-23T15:16:16.721Z,6.72
2022-09-23T15:18:44.619Z,8.60
2022-09-23T15:21:12.890Z,9.27
2022-09-23T15:23:45.110Z,10.65
2022-09-23T15:26:13.760Z,10.02
2022-09-23T15:28:40.810Z,12.18
2022-09-23T15:31:09.051Z,8.93
2022-09-23T15:33:36.034Z,9.85
2022-09-23T15:36:03.194Z,10.10
2022-09-23T15:38:29.530Z,10.45
2022-09-23T15:40:55.907Z,9.23
2022-09-23T15:43:26.499Z,9.70
2022-09-23T15:45:57.602Z,8.05
2022-09-23T15:48:36.840Z,7.53
2022-09-23T15:51:04.374Z,9.63
2022-09-23T15:53:31.499Z,11.52
2022-09-23T15:55:58.631Z,8.63
2022-09-23T15:58:27.971Z,8.77
2022-09-23T16:00:56.858Z,10.02
2022-09-23T16:03:28.311Z,9.23
2022-09-23T16:06:00.509Z,8.80
2022-09-23T16:08:27.355Z,7.88
2022-09-23T16:10:55.040Z,11.05
2022-09-23T16:13:21.577Z,7.60
2022-09-23T16:15:47.858Z,13.88
2022-09-23T16:18:14.600Z,7.68
2022-09-23T16:20:45.479Z,8.20
2022-09-23T16:23:34.288Z,9.82
2022-09-23T16:26:04.255Z,8.80
2022-09-23T16:28:30.617Z,7.95
2022-09-23T16:30:57.023Z,8.27
2022-09-23T16:33:23.491Z,12.18
2022-09-23T16:35:50.431Z,9.38
2022-09-23T16:38:16.937Z,7.28
2022-09-23T16:40:47.056Z,9.40
2022-09-23T16:43:13.912Z,11.40
2022-09-23T16:45:40.541Z,10.00
2022-09-23T16:48:06.853Z,12.52
2022-09-23T16:50:34.096Z,11.93
2022-09-23T16:53:00.556Z,12.40
2022-09-23T16:55:27.190Z,14.45
2022-09-23T16:57:56.409Z,14.35
2022-09-23T17:00:42.143Z,12.60
2022-09-23T17:03:28.826Z,13.88
2022-09-23T17:05:55.446Z,14.93
2022-09-23T17:08:21.814Z,14.93
2022-09-23T17:10:54.944Z,13.80
2022-09-23T17:13:21.295Z,15.75
2022-09-23T17:15:47.641Z,15.02
2022-09-23T17:18:18.926Z,13.02
2022-09-23T17:20:55.530Z,15.52
2022-09-23T17:23:22.085Z,12.13
2022-09-23T17:25:48.678Z,19.27
2022-09-23T17:28:15.235Z,17.77
2022-09-23T17:30:41.737Z,14.07
2022-09-23T17:33:08.962Z,14.32
2022-09-23T17:35:38.465Z,14.73
2022-09-23T17:38:04.804Z,13.32
2022-09-23T17:40:31.147Z,13.90
2022-09-23T17:42:57.679Z,15.02
2022-09-23T17:45:24.065Z,13.35
2022-09-23T17:47:54.640Z,15.07
2022-09-23T17:50:24.188Z,15.82
2022-09-23T17:52:50.582Z,19.88
2022-09-23T17:55:18.141Z,17.63
2022-09-23T17:57:44.506Z,18.13
2022-09-23T18:00:11.144Z,21.02
2022-09-23T18:02:40.669Z,29.92
2022-09-23T18:05:07.307Z,18.85
2022-09-23T18:07:33.788Z,18.90
2022-09-23T18:10:00.107Z,21.35
2022-09-23T18:12:26.545Z,18.45
2022-09-23T18:14:52.879Z,22.25
2022-09-23T18:17:19.395Z,23.00
2022-09-23T18:19:49.087Z,22.02
2022-09-23T18:22:15.556Z,20.17
2022-09-23T18:24:42.559Z,23.30
2022-09-23T18:27:09.525Z,24.13
2022-09-23T18:29:35.934Z,25.23
2022-09-23T18:32:02.484Z,23.80
2022-09-23T18:34:28.890Z,25.58
2022-09-23T18:36:56.084Z,22.52
2022-09-23T18:39:22.546Z,29.65
2022-09-23T18:41:49.462Z,33.20
2022-09-23T18:44:16.719Z,28.92
2022-09-23T18:46:44.679Z,33.10
2022-09-23T18:49:29.631Z,29.92
2022-09-23T18:51:57.235Z,26.63
2022-09-23T18:54:24.428Z,26.88
2022-09-23T18:56:52.566Z,29.17
2022-09-23T18:59:20.598Z,26.38
2022-09-23T19:01:48.341Z,28.38
2022-09-23T19:04:15.964Z,27.92
2022-09-23T19:06:42.567Z,32.92
2022-09-23T19:09:09.168Z,26.33
2022-09-23T19:11:36.424Z,23.98
2022-09-23T19:14:04.717Z,31.50
2022-09-23T19:16:31.778Z,29.30
2022-09-23T19:18:59.301Z,28.52
2022-09-23T19:21:26.288Z,31.83
2022-09-23T19:23:53.894Z,28.80
2022-09-23T19:26:21.670Z,30.23
2022-09-23T19:28:51.979Z,29.23
2022-09-23T19:31:20.094Z,27.35
2022-09-23T19:34:12.939Z,26.92
2022-09-23T19:36:39.925Z,30.35
2022-09-23T19:39:08.421Z,29.35
2022-09-23T19:41:37.549Z,26.50
2022-09-23T19:44:06.826Z,28.70
2022-09-23T19:46:36.800Z,26.33
2022-09-23T19:49:03.816Z,29.70
2022-09-23T19:51:30.774Z,29.80
2022-09-23T19:53:57.331Z,28.48
2022-09-23T19:56:23.756Z,30.45
2022-09-23T19:58:55.212Z,27.85
2022-09-23T20:01:22.193Z,27.05
2022-09-23T20:03:49.187Z,27.33
2022-09-23T20:06:16.530Z,28.63
2022-09-23T20:08:43.802Z,29.70
2022-09-23T20:11:17.737Z,29.17
2022-09-23T20:13:47.035Z,30.42
2022-09-23T20:16:14.353Z,30.40
2022-09-23T20:18:41.741Z,32.42
2022-09-23T20:21:09.499Z,28.85
2022-09-23T20:23:35.946Z,30.13
2022-09-23T20:26:21.964Z,28.95
2022-09-23T20:28:49.370Z,29.70
2022-09-23T20:31:17.649Z,27.70
2022-09-23T20:33:45.604Z,29.75
2022-09-23T20:36:15.588Z,34.10
2022-09-23T20:38:41.940Z,32.33
2022-09-23T20:41:09.238Z,33.00
2022-09-23T20:43:35.916Z,28.00
2022-09-23T20:46:03.480Z,27.67
2022-09-23T20:48:30.732Z,29.83
2022-09-23T20:51:04.156Z,32.92
2022-09-23T20:53:32.206Z,35.75
2022-09-23T20:55:59.086Z,26.67
2022-09-23T20:58:26.874Z,29.73
2022-09-23T21:00:53.941Z,31.13
2022-09-23T21:03:20.349Z,29.17
2022-09-23T21:05:47.631Z,27.52
2022-09-23T21:08:15.620Z,28.20
2022-09-23T21:10:42.113Z,30.35
2022-09-23T21:13:08.531Z,26.52
2022-09-23T21:15:35.423Z,26.17
2022-09-23T21:18:01.699Z,29.00
2022-09-23T21:20:28.067Z,29.90
2022-09-23T21:22:54.819Z,31.27
2022-09-23T21:25:29.226Z,27.45
2022-09-23T21:27:55.992Z,27.15
2022-09-23T21:30:22.884Z,25.33
2022-09-23T21:32:49.182Z,26.25
2022-09-23T21:35:16.044Z,26.63
2022-09-23T21:37:42.415Z,27.20
2022-09-23T21:40:27.720Z,29.08
2022-09-23T21:42:58.827Z,23.35
2022-09-23T21:47:52.454Z,24.02
2022-09-23T21:50:19.063Z,25.15
2022-09-23T21:52:46.367Z,25.15
2022-09-23T21:55:12.880Z,26.92
2022-09-23T21:57:39.240Z,27.00
2022-09-23T22:00:06.380Z,25.77
2022-09-23T22:02:32.658Z,31.17
2022-09-23T22:04:59.038Z,26.35
2022-09-23T22:07:25.355Z,28.55
2022-09-23T22:09:51.660Z,27.42
2022-09-23T22:12:18.190Z,25.38
2022-09-23T22:14:47.060Z,25.83
2022-09-23T22:17:14.427Z,30.83
2022-09-23T22:19:45.829Z,28.85
2022-09-23T22:22:13.931Z,31.40
2022-09-23T22:24:44.048Z,28.30
2022-09-23T22:27:10.940Z,33.23
2022-09-23T22:29:55.943Z,32.15
2022-09-23T22:32:40.866Z,32.03
2022-09-23T22:35:08.433Z,34.22
2022-09-23T22:37:35.330Z,36.75
2022-09-23T22:40:02.411Z,34.53
2022-09-23T22:42:30.826Z,35.88
2022-09-23T22:44:57.464Z,38.63
2022-09-23T22:47:24.106Z,39.13
2022-09-23T22:49:55.333Z,41.67
2022-09-23T22:52:24.394Z,41.35
2022-09-23T22:54:51.672Z,34.78
2022-09-23T22:57:19.190Z,34.35
2022-09-23T22:59:47.887Z,35.13
2022-09-23T23:02:18.053Z,39.17
2022-09-23T23:04:47.423Z,33.70
2022-09-23T23:07:14.674Z,30.52
2022-09-23T23:09:41.372Z,34.58
2022-09-23T23:12:07.813Z,34.60
2022-09-23T23:14:35.624Z,30.98
2022-09-23T23:17:01.941Z,32.60
2022-09-23T23:19:28.272Z,33.47
2022-09-23T23:21:54.936Z,35.45
2022-09-23T23:24:22.574Z,34.03
2022-09-23T23:26:49.269Z,37.08
2022-09-23T23:29:16.390Z,34.85
2022-09-23T23:31:43.478Z,38.15
2022-09-23T23:34:17.229Z,40.03
2022-09-23T23:36:43.939Z,36.03
2022-09-23T23:39:10.959Z,33.42
2022-09-23T23:41:39.373Z,34.65
2022-09-23T23:44:06.119Z,34.75
2022-09-23T23:46:33.211Z,34.95
2022-09-23T23:48:59.979Z,34.28
2022-09-23T23:51:26.619Z,31.70
2022-09-23T23:53:53.865Z,35.75
2022-09-23T23:56:21.328Z,32.88
2022-09-23T23:58:47.693Z,35.28
